createdAt,value
2018-05-18T00:01:22.347Z,76.20
2018-05-18T00:03:51.198Z,76.20
2018-05-18T00:06:19.263Z,76.00
2018-05-18T00:08:47.302Z,76.30
2018-05-18T00:11:15.435Z,76.10
2018-05-18T00:13:44.233Z,76.60
2018-05-18T00:16:13.045Z,76.60
2018-05-18T00:18:41.105Z,76.60
2018-05-18T00:21:09.947Z,77.00
2018-05-18T00:23:38.003Z,77.00
2018-05-18T00:26:06.087Z,76.50
2018-05-18T00:28:34.150Z,76.70
2018-05-18T00:31:02.220Z,76.60
2018-05-18T00:33:30.321Z,77.00
2018-05-18T00:35:58.389Z,76.30
2018-05-18T00:38:26.462Z,76.50
2018-05-18T00:40:54.534Z,77.40
2018-05-18T00:43:22.618Z,77.20
2018-05-18T00:45:50.694Z,77.30
2018-05-18T00:48:18.762Z,77.40
2018-05-18T00:50:46.838Z,77.30
2018-05-18T00:53:14.989Z,77.60
2018-05-18T00:55:54.758Z,78.30
2018-05-18T00:58:22.858Z,77.80
2018-05-18T01:00:50.930Z,77.90
2018-05-18T01:03:19.756Z,78.40
2018-05-18T01:05:47.865Z,78.40
2018-05-18T01:08:15.931Z,77.90
2018-05-18T01:10:44.027Z,77.70
2018-05-18T01:13:12.194Z,78.30
2018-05-18T01:15:40.249Z,78.30
2018-05-18T01:18:08.326Z,78.80
2018-05-18T01:20:36.422Z,78.40
2018-05-18T01:23:04.492Z,78.40
2018-05-18T01:25:32.571Z,78.90
2018-05-18T01:28:01.422Z,78.80
2018-05-18T01:30:30.606Z,78.70
2018-05-18T01:32:58.685Z,78.30
2018-05-18T01:35:26.753Z,78.30
2018-05-18T01:37:54.818Z,78.00
2018-05-18T01:40:22.902Z,78.20
2018-05-18T01:42:51.725Z,78.50
2018-05-18T01:45:19.797Z,78.50
2018-05-18T01:47:47.886Z,79.30
2018-05-18T01:50:16.726Z,79.50
2018-05-18T01:52:44.794Z,79.40
2018-05-18T01:55:12.857Z,78.90
2018-05-18T01:57:40.930Z,79.30
2018-05-18T02:00:12.988Z,79.40
2018-05-18T02:02:41.067Z,78.80
2018-05-18T02:05:09.142Z,78.30
2018-05-18T02:07:37.214Z,78.50
2018-05-18T02:10:05.296Z,79.40
2018-05-18T02:12:33.356Z,78.70
2018-05-18T02:15:01.416Z,80.00
2018-05-18T02:17:35.291Z,80.60
2018-05-18T02:20:03.329Z,79.20
2018-05-18T02:22:31.366Z,79.40
2018-05-18T02:24:59.397Z,79.70
2018-05-18T02:27:27.459Z,80.00
2018-05-18T02:29:55.503Z,80.10
2018-05-18T02:32:23.551Z,79.50
2018-05-18T02:34:51.586Z,79.50
2018-05-18T02:37:19.638Z,79.70
2018-05-18T02:39:48.448Z,80.20
2018-05-18T02:42:16.482Z,80.20
2018-05-18T02:44:44.531Z,80.90
2018-05-18T02:47:12.561Z,80.90
2018-05-18T02:49:40.620Z,80.80
2018-05-18T02:52:08.653Z,79.90
2018-05-18T02:54:36.694Z,80.00
2018-05-18T02:57:04.754Z,80.50
2018-05-18T02:59:32.798Z,80.20
2018-05-18T03:02:00.851Z,80.10
2018-05-18T03:04:28.931Z,80.00
2018-05-18T03:06:56.973Z,79.40
2018-05-18T03:09:25.015Z,80.10
2018-05-18T03:11:53.087Z,79.40
2018-05-18T03:14:21.910Z,80.40
2018-05-18T03:16:49.954Z,80.30
2018-05-18T03:19:18.010Z,80.30
2018-05-18T03:21:46.071Z,79.80
2018-05-18T03:24:14.127Z,78.80
2018-05-18T03:26:42.158Z,79.80
2018-05-18T03:29:10.286Z,79.80
2018-05-18T03:31:38.338Z,79.20
2018-05-18T03:34:06.427Z,80.10
2018-05-18T03:36:34.477Z,79.50
2018-05-18T03:39:02.536Z,80.20
2018-05-18T03:41:30.577Z,80.70
2018-05-18T03:43:58.630Z,81.50
2018-05-18T03:46:26.681Z,81.90
2018-05-18T03:48:54.728Z,81.30
2018-05-18T03:51:22.770Z,80.60
2018-05-18T03:54:02.666Z,80.70
2018-05-18T03:56:30.737Z,80.40
2018-05-18T03:58:58.818Z,81.00
2018-05-18T04:01:38.718Z,81.60
2018-05-18T04:04:20.718Z,81.70
2018-05-18T04:07:00.642Z,82.10
2018-05-18T04:09:28.702Z,81.90
2018-05-18T04:11:56.747Z,81.40
2018-05-18T04:14:24.785Z,81.10
2018-05-18T04:16:52.870Z,80.90
2018-05-18T04:19:20.914Z,81.60
2018-05-18T04:21:48.962Z,81.90
2018-05-18T04:24:17.017Z,80.50
2018-05-18T04:26:45.067Z,80.40
2018-05-18T04:29:13.127Z,81.20
2018-05-18T04:31:41.183Z,81.50
2018-05-18T04:34:09.989Z,82.50
2018-05-18T04:36:38.034Z,82.50
2018-05-18T04:39:06.873Z,81.70
2018-05-18T04:41:34.926Z,81.70
2018-05-18T04:44:02.982Z,82.00
2018-05-18T04:46:31.042Z,82.00
2018-05-18T04:48:59.094Z,82.70
2018-05-18T04:51:27.135Z,82.90
2018-05-18T04:53:55.962Z,82.20
2018-05-18T04:56:24.005Z,82.10
2018-05-18T04:58:52.060Z,82.50
2018-05-18T05:01:32.830Z,82.20
2018-05-18T05:04:00.893Z,82.50
2018-05-18T05:06:28.934Z,81.90
2018-05-18T05:08:57.762Z,82.20
2018-05-18T05:11:25.797Z,82.00
2018-05-18T05:13:54.605Z,82.50
2018-05-18T05:16:22.657Z,82.50
2018-05-18T05:18:50.710Z,82.90
2018-05-18T05:21:18.755Z,81.90
2018-05-18T05:23:46.855Z,81.90
2018-05-18T05:26:14.878Z,82.00
2018-05-18T05:28:42.924Z,81.60
2018-05-18T05:31:10.982Z,80.90
2018-05-18T05:33:39.045Z,81.80
2018-05-18T05:36:07.085Z,81.00
2018-05-18T05:38:35.141Z,80.50
2018-05-18T05:41:13.047Z,81.10
2018-05-18T05:43:44.225Z,81.10
2018-05-18T05:46:12.285Z,81.00
2018-05-18T05:48:40.326Z,81.30
2018-05-18T05:51:09.370Z,80.00
2018-05-18T05:53:37.424Z,80.30
2018-05-18T05:56:11.330Z,80.40
2018-05-18T05:58:39.390Z,81.00
2018-05-18T06:01:07.434Z,80.40
2018-05-18T06:03:37.390Z,79.90
2018-05-18T06:06:05.452Z,79.30
2018-05-18T06:08:33.494Z,78.60
2018-05-18T06:11:03.454Z,78.80
2018-05-18T06:13:37.373Z,78.80
2018-05-18T06:16:05.450Z,78.30
2018-05-18T06:18:39.362Z,79.00
2018-05-18T06:21:07.437Z,79.30
2018-05-18T06:23:35.485Z,79.30
2018-05-18T06:26:03.533Z,80.00
2018-05-18T06:28:31.604Z,79.50
2018-05-18T06:30:59.659Z,79.00
2018-05-18T06:33:36.766Z,78.40
2018-05-18T06:36:04.834Z,78.50
2018-05-18T06:38:32.874Z,78.60
2018-05-18T06:41:00.918Z,79.00
2018-05-18T06:43:32.986Z,79.70
2018-05-18T06:46:01.025Z,80.00
2018-05-18T06:48:29.079Z,79.00
2018-05-18T06:51:03.942Z,79.20
2018-05-18T06:53:31.994Z,79.10
2018-05-18T06:56:00.047Z,79.70
2018-05-18T06:58:28.106Z,79.40
2018-05-18T07:01:00.242Z,80.00
2018-05-18T07:03:28.282Z,79.80
2018-05-18T07:05:56.329Z,79.80
2018-05-18T07:08:24.383Z,79.40
2018-05-18T07:10:52.426Z,78.90
2018-05-18T07:13:20.470Z,80.30
2018-05-18T07:15:55.406Z,79.40
2018-05-18T07:18:23.442Z,79.40
2018-05-18T07:20:51.501Z,79.70
2018-05-18T07:23:20.325Z,80.50
2018-05-18T07:25:53.266Z,80.40
2018-05-18T07:28:21.385Z,80.00
2018-05-18T07:30:49.434Z,79.90
2018-05-18T07:33:17.482Z,80.10
2018-05-18T07:35:46.297Z,80.60
2018-05-18T07:38:14.377Z,80.50
2018-05-18T07:40:42.405Z,79.60
2018-05-18T07:43:10.477Z,80.10
2018-05-18T07:45:41.507Z,80.60
2018-05-18T07:48:12.658Z,80.20
2018-05-18T07:51:02.346Z,79.80
2018-05-18T07:53:30.500Z,79.70
2018-05-18T07:56:00.542Z,79.10
2018-05-18T07:58:28.585Z,79.60
2018-05-18T08:00:56.662Z,79.40
2018-05-18T08:03:24.727Z,80.00
2018-05-18T08:05:55.003Z,80.20
2018-05-18T08:08:23.085Z,79.90
2018-05-18T08:10:51.158Z,80.20
2018-05-18T08:13:19.250Z,79.10
2018-05-18T08:15:47.319Z,79.80
2018-05-18T08:18:15.431Z,80.80
2018-05-18T08:20:44.318Z,79.40
2018-05-18T08:23:13.334Z,79.40
2018-05-18T08:25:42.157Z,80.20
2018-05-18T08:28:10.225Z,80.20
2018-05-18T08:30:49.969Z,80.10
2018-05-18T08:33:18.098Z,79.80
2018-05-18T08:35:46.162Z,80.10
2018-05-18T08:38:14.271Z,79.40
2018-05-18T08:40:43.210Z,78.90
2018-05-18T08:43:11.285Z,78.80
2018-05-18T08:45:39.362Z,79.60
2018-05-18T08:48:07.446Z,78.30
2018-05-18T08:50:35.506Z,78.20
2018-05-18T08:53:03.577Z,78.40
2018-05-18T08:55:31.645Z,78.00
2018-05-18T08:57:59.711Z,78.60
2018-05-18T09:00:31.632Z,78.40
2018-05-18T09:03:00.470Z,78.90
2018-05-18T09:05:28.552Z,78.90
2018-05-18T09:07:56.614Z,78.90
2018-05-18T09:10:24.849Z,79.30
2018-05-18T09:12:52.914Z,79.60
2018-05-18T09:15:20.988Z,78.50
2018-05-18T09:17:49.065Z,78.60
2018-05-18T09:20:17.109Z,79.20
2018-05-18T09:22:45.158Z,77.20
2018-05-18T09:25:13.239Z,77.90
2018-05-18T09:27:41.282Z,76.40
2018-05-18T09:30:09.335Z,77.20
2018-05-18T09:32:37.378Z,77.90
2018-05-18T09:35:05.426Z,77.80
2018-05-18T09:37:33.479Z,77.10
2018-05-18T09:40:01.527Z,78.40
2018-05-18T09:42:29.609Z,77.20
2018-05-18T09:44:59.698Z,77.40
2018-05-18T09:47:28.493Z,78.50
2018-05-18T09:49:56.577Z,78.30
2018-05-18T09:52:24.638Z,77.50
2018-05-18T09:54:57.654Z,76.30
2018-05-18T09:57:25.546Z,77.10
2018-05-18T09:59:53.621Z,77.90
2018-05-18T10:02:21.664Z,75.50
2018-05-18T10:04:49.709Z,75.80
2018-05-18T10:07:18.534Z,74.70
2018-05-18T10:09:46.585Z,74.70
2018-05-18T10:12:14.646Z,76.00
2018-05-18T10:14:42.689Z,74.90
2018-05-18T10:17:10.730Z,75.10
2018-05-18T10:20:00.479Z,75.70
2018-05-18T10:22:28.539Z,76.90
2018-05-18T10:24:56.593Z,74.90
2018-05-18T10:30:04.322Z,73.90
2018-05-18T10:32:32.373Z,74.90
2018-05-18T10:35:00.425Z,75.00
2018-05-18T10:37:29.435Z,75.10
2018-05-18T10:39:57.482Z,73.50
2018-05-18T10:42:25.538Z,73.30
2018-05-18T10:44:53.638Z,73.20
2018-05-18T10:47:37.638Z,72.50
2018-05-18T10:50:05.697Z,73.10
2018-05-18T10:52:34.506Z,72.30
2018-05-18T10:55:02.578Z,72.20
2018-05-18T10:57:30.641Z,70.70
2018-05-18T10:59:58.696Z,72.10
2018-05-18T11:02:26.806Z,70.40
2018-05-18T11:04:54.834Z,70.70
2018-05-18T11:07:23.815Z,69.40
2018-05-18T11:09:51.870Z,70.10
2018-05-18T11:12:19.918Z,71.60
2018-05-18T11:14:57.824Z,71.70
2018-05-18T11:17:25.885Z,70.40
2018-05-18T11:19:53.959Z,70.90
2018-05-18T11:22:21.993Z,72.80
2018-05-18T11:24:57.828Z,70.10
2018-05-18T11:27:25.882Z,70.10
2018-05-18T11:29:53.930Z,70.50
2018-05-18T11:32:21.977Z,71.40
2018-05-18T11:34:50.030Z,72.00
2018-05-18T11:37:18.882Z,72.70
2018-05-18T11:39:47.790Z,73.20
2018-05-18T11:42:15.894Z,73.10
2018-05-18T11:44:51.598Z,71.70
2018-05-18T11:47:19.648Z,73.70
2018-05-18T11:49:47.685Z,74.30
2018-05-18T11:52:16.522Z,73.00
2018-05-18T11:54:44.568Z,72.90
2018-05-18T11:57:12.610Z,72.40
2018-05-18T11:59:40.677Z,74.20
2018-05-18T12:02:08.719Z,74.40
2018-05-18T12:04:36.826Z,73.50
2018-05-18T12:07:04.873Z,73.20
2018-05-18T12:09:32.914Z,71.30
2018-05-18T12:12:00.978Z,71.70
2018-05-18T12:14:29.022Z,70.80
2018-05-18T12:16:57.847Z,72.00
2018-05-18T12:19:25.909Z,71.90
2018-05-18T12:22:06.765Z,72.80
2018-05-18T12:24:35.597Z,73.90
2018-05-18T12:27:03.662Z,74.00
2018-05-18T12:29:31.734Z,72.50
2018-05-18T12:31:59.778Z,71.90
2018-05-18T12:34:27.833Z,72.20
2018-05-18T12:36:56.650Z,72.20
2018-05-18T12:39:24.737Z,72.20
2018-05-18T12:41:52.787Z,70.70
2018-05-18T12:44:20.845Z,72.80
2018-05-18T12:46:48.910Z,72.20
2018-05-18T12:49:16.961Z,72.40
2018-05-18T12:51:45.016Z,73.00
2018-05-18T12:54:13.073Z,71.70
2018-05-18T12:56:55.766Z,73.80
2018-05-18T12:59:23.889Z,72.60
2018-05-18T13:01:51.866Z,71.10
2018-05-18T13:04:19.921Z,71.90
2018-05-18T13:06:47.970Z,72.30
2018-05-18T13:09:16.786Z,70.90
2018-05-18T13:11:55.599Z,71.10
2018-05-18T13:14:23.658Z,69.70
2018-05-18T13:16:51.742Z,70.70
2018-05-18T13:19:19.838Z,71.50
2018-05-18T13:21:47.882Z,69.20
2018-05-18T13:24:15.955Z,70.10
2018-05-18T13:26:48.986Z,71.40
2018-05-18T13:29:17.045Z,70.60
2018-05-18T13:31:45.117Z,70.40
2018-05-18T13:34:13.150Z,70.00
2018-05-18T13:36:41.222Z,70.50
2018-05-18T13:39:21.277Z,70.80
2018-05-18T13:41:49.354Z,69.80
2018-05-18T13:44:17.397Z,70.40
2018-05-18T13:46:45.527Z,70.80
2018-05-18T13:49:13.603Z,72.00
2018-05-18T13:51:41.705Z,70.10
2018-05-18T13:54:09.709Z,72.00
2018-05-18T13:56:37.781Z,71.50
2018-05-18T13:59:05.867Z,70.40
2018-05-18T14:01:33.924Z,69.60
2018-05-18T14:04:01.966Z,70.70
2018-05-18T14:06:30.015Z,70.90
2018-05-18T14:08:58.077Z,70.40
2018-05-18T14:11:26.126Z,71.20
2018-05-18T14:13:54.170Z,68.60
2018-05-18T14:16:27.323Z,71.40
2018-05-18T14:18:55.407Z,70.00
2018-05-18T14:21:25.301Z,70.70
2018-05-18T14:23:53.361Z,70.70
2018-05-18T14:26:21.470Z,69.70
2018-05-18T14:28:49.490Z,70.30
2018-05-18T14:31:17.546Z,70.40
2018-05-18T14:33:45.612Z,68.90
2018-05-18T14:36:13.722Z,69.40
2018-05-18T14:38:41.814Z,69.60
2018-05-18T14:41:09.872Z,70.80
2018-05-18T14:43:37.918Z,71.10
2018-05-18T14:46:23.781Z,69.70
2018-05-18T14:48:51.829Z,70.20
2018-05-18T14:51:25.530Z,70.40
2018-05-18T14:53:53.586Z,70.40
2018-05-18T14:56:21.629Z,71.10
2018-05-18T14:58:49.702Z,70.20
2018-05-18T15:01:21.805Z,70.00
2018-05-18T15:03:49.881Z,69.80
2018-05-18T15:06:17.958Z,70.30
2018-05-18T15:08:46.006Z,70.80
2018-05-18T15:11:15.012Z,70.70
2018-05-18T15:13:43.074Z,70.30
2018-05-18T15:16:11.111Z,70.90
2018-05-18T15:18:39.166Z,70.30
2018-05-18T15:21:07.209Z,71.30
2018-05-18T15:23:36.017Z,70.30
2018-05-18T15:26:04.066Z,70.30
2018-05-18T15:28:32.126Z,72.40
2018-05-18T15:31:00.170Z,69.90
2018-05-18T15:33:28.243Z,71.10
2018-05-18T15:36:05.970Z,71.20
2018-05-18T15:38:34.023Z,71.00
2018-05-18T15:41:02.082Z,70.90
2018-05-18T15:43:30.178Z,70.70
2018-05-18T15:45:58.249Z,71.20
2018-05-18T15:48:26.329Z,71.60
2018-05-18T15:50:54.422Z,72.50
2018-05-18T15:53:23.286Z,71.40
2018-05-18T15:55:51.345Z,71.40
2018-05-18T15:58:19.426Z,71.00
2018-05-18T16:00:47.490Z,71.30
2018-05-18T16:03:15.570Z,72.10
2018-05-18T16:05:43.669Z,73.70
2018-05-18T16:08:11.742Z,70.20
2018-05-18T16:10:39.826Z,70.30
2018-05-18T16:13:08.670Z,71.60
2018-05-18T16:15:36.889Z,71.50
2018-05-18T16:18:04.958Z,70.10
2018-05-18T16:20:33.039Z,69.90
2018-05-18T16:23:01.082Z,71.50
2018-05-18T16:25:29.178Z,70.70
2018-05-18T16:27:57.245Z,69.60
2018-05-18T16:30:25.315Z,71.30
2018-05-18T16:32:53.401Z,69.50
2018-05-18T16:35:21.457Z,69.80
2018-05-18T16:37:49.534Z,68.00
2018-05-18T16:40:17.622Z,67.60
2018-05-18T16:42:45.693Z,68.70
2018-05-18T16:45:13.749Z,66.00
2018-05-18T16:47:42.605Z,56.20
2018-05-18T16:50:10.695Z,56.30
2018-05-18T16:52:43.811Z,53.40
2018-05-18T16:55:11.869Z,49.90
2018-05-18T16:57:39.926Z,50.50
2018-05-18T17:00:14.774Z,50.20
2018-05-18T17:02:42.849Z,51.60
2018-05-18T17:05:10.913Z,49.80
2018-05-18T17:07:38.995Z,49.10
2018-05-18T17:10:07.840Z,50.30
2018-05-18T17:12:35.882Z,49.80
2018-05-18T17:15:03.954Z,51.50
2018-05-18T17:17:32.026Z,52.50
2018-05-18T17:20:00.114Z,52.60
2018-05-18T17:22:28.154Z,53.60
2018-05-18T17:24:56.221Z,50.60
2018-05-18T17:27:24.270Z,50.60
2018-05-18T17:29:52.326Z,48.80
2018-05-18T17:32:20.396Z,48.50
2018-05-18T17:34:48.479Z,48.30
2018-05-18T17:37:16.547Z,46.00
2018-05-18T17:39:44.597Z,45.30
2018-05-18T17:42:12.685Z,46.60
2018-05-18T17:44:40.765Z,45.90
2018-05-18T17:47:08.847Z,46.50
2018-05-18T17:49:36.930Z,47.90
2018-05-18T17:52:05.013Z,48.50
2018-05-18T17:54:33.058Z,49.30
2018-05-18T17:57:01.134Z,50.70
2018-05-18T17:59:29.182Z,52.00
2018-05-18T18:01:57.235Z,53.40
2018-05-18T18:04:25.318Z,54.90
2018-05-18T18:06:54.129Z,57.10
2018-05-18T18:09:22.185Z,57.10
2018-05-18T18:11:50.265Z,57.70
2018-05-18T18:14:18.363Z,58.40
2018-05-18T18:16:57.278Z,59.20
2018-05-18T18:19:25.362Z,59.50
2018-05-18T18:21:53.435Z,58.30
2018-05-18T18:24:21.494Z,58.30
2018-05-18T18:26:49.578Z,59.00
2018-05-18T18:29:17.646Z,60.10
2018-05-18T18:31:45.717Z,61.70
2018-05-18T18:34:13.797Z,62.90
2018-05-18T18:36:41.875Z,63.20
2018-05-18T18:39:09.943Z,64.10
2018-05-18T18:41:38.018Z,65.10
2018-05-18T18:44:06.085Z,66.40
2018-05-18T18:46:34.198Z,68.00
2018-05-18T18:49:02.266Z,68.20
2018-05-18T18:51:30.346Z,69.10
2018-05-18T18:53:58.453Z,69.90
2018-05-18T18:56:26.516Z,70.80
2018-05-18T18:58:54.579Z,71.40
2018-05-18T19:01:22.658Z,71.60
2018-05-18T19:03:50.703Z,72.10
2018-05-18T19:06:18.777Z,72.20
2018-05-18T19:08:46.849Z,72.30
2018-05-18T19:11:14.911Z,72.60
2018-05-18T19:13:42.946Z,73.20
2018-05-18T19:16:11.026Z,73.60
2018-05-18T19:18:39.218Z,73.70
2018-05-18T19:21:07.283Z,73.80
2018-05-18T19:23:35.337Z,73.80
2018-05-18T19:26:03.399Z,74.20
2018-05-18T19:28:31.466Z,74.60
2018-05-18T19:30:59.623Z,74.60
2018-05-18T19:33:27.722Z,74.90
2018-05-18T19:35:55.790Z,75.10
2018-05-18T19:38:24.945Z,75.20
2018-05-18T19:40:53.022Z,75.40
2018-05-18T19:43:21.077Z,75.50
2018-05-18T19:45:49.288Z,76.10
2018-05-18T19:48:17.366Z,76.00
2018-05-18T19:50:45.462Z,76.50
2018-05-18T19:53:13.534Z,77.20
2018-05-18T19:55:41.606Z,77.10
2018-05-18T19:58:09.674Z,76.90
2018-05-18T20:00:37.726Z,76.90
2018-05-18T20:03:05.805Z,77.30
2018-05-18T20:05:37.717Z,77.20
2018-05-18T20:08:06.543Z,77.80
2018-05-18T20:10:34.614Z,77.80
2018-05-18T20:13:02.656Z,77.40
2018-05-18T20:15:30.754Z,77.80
2018-05-18T20:17:58.836Z,78.20
2018-05-18T20:20:26.894Z,78.40
2018-05-18T20:23:00.993Z,78.80
2018-05-18T20:25:29.065Z,78.30
2018-05-18T20:27:57.111Z,78.90
2018-05-18T20:30:25.181Z,79.10
2018-05-18T20:32:53.258Z,79.20
2018-05-18T20:35:21.342Z,79.00
2018-05-18T20:37:49.410Z,78.70
2018-05-18T20:40:17.498Z,78.60
2018-05-18T20:42:45.558Z,78.90
2018-05-18T20:45:14.410Z,79.50
2018-05-18T20:47:42.485Z,79.50
2018-05-18T20:50:10.551Z,79.80
2018-05-18T20:52:38.621Z,80.00
2018-05-18T20:55:07.470Z,80.10
2018-05-18T20:57:35.530Z,80.10
2018-05-18T21:00:03.618Z,80.00
2018-05-18T21:02:31.715Z,80.20
2018-05-18T21:04:59.787Z,80.60
2018-05-18T21:07:27.853Z,80.20
2018-05-18T21:09:55.960Z,80.70
2018-05-18T21:12:24.009Z,80.50
2018-05-18T21:14:52.082Z,80.90
2018-05-18T21:17:20.166Z,81.60
2018-05-18T21:19:48.234Z,81.60
2018-05-18T21:22:17.073Z,81.30
2018-05-18T21:24:45.926Z,81.00
2018-05-18T21:27:14.750Z,81.30
2018-05-18T21:29:43.566Z,81.20
2018-05-18T21:32:11.650Z,81.10
2018-05-18T21:34:39.741Z,81.40
2018-05-18T21:37:07.802Z,81.30
2018-05-18T21:39:35.874Z,81.00
2018-05-18T21:42:03.955Z,81.00
2018-05-18T21:44:32.016Z,81.40
2018-05-18T21:47:00.115Z,81.40
2018-05-18T21:49:28.166Z,81.30
2018-05-18T21:51:56.247Z,81.50
2018-05-18T21:54:24.322Z,82.20
2018-05-18T21:56:53.150Z,81.90
2018-05-18T21:59:22.010Z,82.60
2018-05-18T22:01:50.086Z,82.60
2018-05-18T22:04:18.134Z,82.40
2018-05-18T22:06:46.218Z,82.00
2018-05-18T22:09:14.286Z,83.20
2018-05-18T22:11:42.336Z,83.20
2018-05-18T22:14:12.608Z,82.50
2018-05-18T22:16:40.607Z,82.90
2018-05-18T22:19:08.654Z,82.90
2018-05-18T22:21:36.727Z,82.80
2018-05-18T22:24:04.810Z,83.30
2018-05-18T22:26:32.907Z,84.00
2018-05-18T22:29:00.980Z,83.40
2018-05-18T22:31:29.054Z,82.90
2018-05-18T22:33:57.117Z,82.70
2018-05-18T22:36:25.190Z,82.80
2018-05-18T22:38:53.274Z,82.60
2018-05-18T22:41:21.345Z,83.20
2018-05-18T22:43:49.410Z,82.80
2018-05-18T22:46:17.482Z,82.50
2018-05-18T22:48:45.534Z,83.00
2018-05-18T22:51:13.578Z,82.70
2018-05-18T22:53:41.662Z,82.70
2018-05-18T22:56:09.738Z,83.20
2018-05-18T22:58:37.786Z,83.20
2018-05-18T23:01:05.858Z,83.20
2018-05-18T23:03:33.929Z,82.90
2018-05-18T23:06:01.998Z,82.70
2018-05-18T23:08:30.056Z,84.00
2018-05-18T23:11:02.178Z,84.00
2018-05-18T23:13:30.250Z,84.50
2018-05-18T23:15:58.317Z,85.00
2018-05-18T23:18:26.379Z,84.50
2018-05-18T23:20:54.438Z,84.30
2018-05-18T23:23:22.526Z,84.50
2018-05-18T23:25:50.682Z,84.10
2018-05-18T23:28:18.663Z,85.00
2018-05-18T23:30:47.657Z,84.60
2018-05-18T23:33:15.733Z,84.70
2018-05-18T23:35:43.790Z,85.00
2018-05-18T23:38:11.862Z,85.30
2018-05-18T23:40:39.946Z,86.00
2018-05-18T23:43:07.970Z,85.20
2018-05-18T23:45:36.023Z,85.40
2018-05-18T23:48:04.106Z,85.30
2018-05-18T23:50:32.174Z,85.10
2018-05-18T23:53:00.309Z,85.20
2018-05-18T23:55:28.270Z,84.70
2018-05-18T23:57:56.330Z,84.80
